Time;durP1;ratioP1;P1;durP2;ratioP2;P2;SDS_P1;SDS_P2;PMS_P1;PMS_P2;Temp;Humidity;BMP_temperature;BMP_pressure;BME280_temperature;BME280_humidity;BME280_pressure;Samples;Min_cycle;Max_cycle;Signal;HPM_P1;HPM_P2
2022/10/24 00:01:26;;;;;;;3.73;2.10;;;18.90;99.90;;;;;;5111442;28;20558;-34
2022/10/24 00:03:53;;;;;;;5.03;1.90;;;18.80;99.90;;;;;;5111166;28;20209;-34
2022/10/24 00:06:21;;;;;;;7.03;2.00;;;18.90;99.90;;;;;;5110952;28;20222;-34
2022/10/24 00:08:48;;;;;;;11.13;2.53;;;18.90;99.90;;;;;;5111263;28;20195;-34
2022/10/24 00:11:19;;;;;;;5.40;1.90;;;18.90;99.90;;;;;;5111214;28;20199;-34
2022/10/24 00:13:47;;;;;;;4.15;1.60;;;18.90;99.90;;;;;;5111057;28;20221;-34
2022/10/24 00:16:15;;;;;;;5.87;2.20;;;18.90;99.90;;;;;;5110977;28;20224;-34
2022/10/24 00:18:42;;;;;;;4.07;1.95;;;18.90;99.90;;;;;;5111021;28;20214;-34
2022/10/24 00:21:10;;;;;;;10.85;2.22;;;18.90;99.90;;;;;;5111085;27;20583;-34
2022/10/24 00:23:37;;;;;;;10.02;2.35;;;18.90;99.90;;;;;;5110945;28;20202;-34
2022/10/24 00:26:09;;;;;;;3.92;1.52;;;18.90;99.90;;;;;;5110849;28;20206;-33
2022/10/24 00:28:38;;;;;;;6.00;1.63;;;18.90;99.90;;;;;;5126557;27;20559;-33
2022/10/24 00:31:11;;;;;;;2.45;1.38;;;18.90;99.90;;;;;;5111155;28;20198;-33
2022/10/24 00:33:38;;;;;;;4.40;1.57;;;19.00;99.90;;;;;;5110726;28;20681;-33
2022/10/24 00:36:12;;;;;;;5.45;1.70;;;19.00;99.90;;;;;;5110719;28;20209;-33
2022/10/24 00:38:39;;;;;;;5.37;1.57;;;19.00;99.90;;;;;;5110793;28;20190;-33
2022/10/24 00:41:06;;;;;;;9.93;1.70;;;19.00;99.90;;;;;;5110686;28;20215;-33
2022/10/24 00:43:34;;;;;;;12.27;1.77;;;19.00;99.90;;;;;;5110701;28;20198;-33
2022/10/24 00:46:02;;;;;;;5.20;1.40;;;19.00;99.90;;;;;;5110467;28;20329;-33
2022/10/24 00:48:39;;;;;;;2.93;1.23;;;19.00;99.90;;;;;;5110521;28;20263;-33
2022/10/24 00:51:29;;;;;;;3.90;1.50;;;19.00;99.90;;;;;;5110533;28;20592;-33
2022/10/24 00:54:04;;;;;;;5.00;1.43;;;19.00;99.90;;;;;;5110653;28;20206;-33
2022/10/24 00:56:42;;;;;;;4.82;1.38;;;19.00;99.90;;;;;;5111020;28;20526;-33
2022/10/24 00:59:11;;;;;;;3.38;1.15;;;19.00;99.90;;;;;;5094452;28;20199;-33
2022/10/24 01:01:40;;;;;;;5.53;1.30;;;19.00;99.90;;;;;;5091287;28;20251;-34
2022/10/24 01:04:12;;;;;;;6.65;1.60;;;19.00;99.90;;;;;;5096238;28;20198;-34
2022/10/24 01:07:13;;;;;;;3.35;1.20;;;19.00;99.90;;;;;;5103517;28;20207;-33
2022/10/24 01:10:07;;;;;;;9.07;1.50;;;19.00;99.90;;;;;;5105434;28;20205;-34
2022/10/24 01:12:49;;;;;;;2.75;1.27;;;19.00;99.90;;;;;;5110020;28;20190;-34
2022/10/24 01:15:30;;;;;;;2.95;1.48;;;19.00;99.90;;;;;;5101342;28;20202;-34
2022/10/24 01:18:10;;;;;;;3.53;1.47;;;19.00;99.90;;;;;;5104282;28;20695;-34
2022/10/24 01:20:41;;;;;;;3.73;1.50;;;19.10;99.90;;;;;;5125581;27;20320;-34
2022/10/24 01:23:20;;;;;;;2.63;1.17;;;19.10;99.90;;;;;;5109712;28;20201;-34
2022/10/24 01:26:15;;;;;;;4.87;1.40;;;19.10;99.90;;;;;;5109635;28;20222;-34
2022/10/24 01:29:03;;;;;;;2.50;1.33;;;19.10;99.90;;;;;;5109238;28;20190;-34
2022/10/24 01:31:51;;;;;;;4.03;1.40;;;19.10;99.90;;;;;;5109339;28;20190;-34
2022/10/24 01:34:29;;;;;;;3.30;1.50;;;19.10;99.90;;;;;;5109851;28;20896;-35
2022/10/24 01:37:14;;;;;;;3.97;1.60;;;19.10;99.90;;;;;;5109892;28;20230;-34
2022/10/24 01:39:48;;;;;;;3.10;1.40;;;19.10;99.90;;;;;;5109500;28;20197;-34
2022/10/24 01:42:19;;;;;;;4.53;1.20;;;19.00;99.90;;;;;;5109644;28;20197;-34
2022/10/24 01:44:51;;;;;;;9.52;1.63;;;19.00;99.90;;;;;;5109320;28;20205;-34
2022/10/24 01:47:25;;;;;;;5.35;1.50;;;19.00;99.90;;;;;;5109238;28;20225;-34
2022/10/24 01:49:56;;;;;;;5.55;1.13;;;19.00;99.90;;;;;;5109292;28;20190;-34
2022/10/24 01:52:30;;;;;;;4.93;1.50;;;19.00;99.90;;;;;;5109230;28;20198;-34
2022/10/24 01:54:58;;;;;;;2.58;1.23;;;19.10;99.90;;;;;;5109192;28;20178;-34
2022/10/24 01:57:32;;;;;;;4.63;1.17;;;19.10;99.90;;;;;;5109090;28;20194;-34
2022/10/24 02:00:00;;;;;;;2.13;1.10;;;19.10;99.90;;;;;;5109185;28;20280;-34
2022/10/24 02:02:35;;;;;;;2.93;1.00;;;19.00;99.90;;;;;;5109063;28;20297;-33
2022/10/24 02:05:13;;;;;;;3.15;1.20;;;19.00;99.90;;;;;;5109406;28;20201;-33
2022/10/24 02:07:43;;;;;;;4.33;1.40;;;19.00;99.90;;;;;;5109357;28;20243;-33
2022/10/24 02:10:19;;;;;;;3.87;1.20;;;19.00;99.90;;;;;;5109044;28;20218;-33
2022/10/24 02:12:53;;;;;;;2.30;1.10;;;19.00;99.90;;;;;;5108823;28;20281;-33
2022/10/24 02:15:30;;;;;;;3.00;1.30;;;19.00;99.90;;;;;;5109173;28;20222;-33
2022/10/24 02:17:58;;;;;;;5.57;1.57;;;19.00;99.90;;;;;;5108884;28;20206;-33
2022/10/24 02:20:46;;;;;;;3.45;1.23;;;19.00;99.90;;;;;;5108925;28;20236;-33
2022/10/24 02:23:32;;;;;;;4.75;1.35;;;19.00;99.90;;;;;;5107998;28;20654;-32
2022/10/24 02:26:03;;;;;;;3.70;1.35;;;18.90;99.90;;;;;;5109053;28;20210;-33
2022/10/24 02:28:38;;;;;;;4.63;1.30;;;18.90;99.90;;;;;;5107769;28;20202;-32
2022/10/24 02:31:17;;;;;;;2.65;1.20;;;18.90;99.90;;;;;;5108923;28;20240;-33
2022/10/24 02:33:47;;;;;;;5.97;1.88;;;18.90;99.90;;;;;;5108830;28;20198;-33
2022/10/24 02:36:18;;;;;;;2.87;1.40;;;18.90;99.90;;;;;;5108662;28;20214;-33
2022/10/24 02:38:49;;;;;;;3.88;1.10;;;18.90;99.90;;;;;;5108792;28;20285;-32
2022/10/24 02:41:23;;;;;;;5.13;1.43;;;18.80;99.90;;;;;;5108623;28;20182;-33
2022/10/24 02:43:52;;;;;;;4.47;1.40;;;18.80;99.90;;;;;;5108582;28;20313;-33
2022/10/24 02:46:21;;;;;;;4.83;1.20;;;18.80;99.90;;;;;;5108359;28;20250;-33
2022/10/24 02:48:53;;;;;;;3.40;1.50;;;18.80;99.90;;;;;;5109101;28;20213;-33
2022/10/24 02:51:26;;;;;;;5.63;1.50;;;18.80;99.90;;;;;;5108779;28;20194;-32
2022/10/24 02:53:53;;;;;;;4.78;1.35;;;18.80;99.90;;;;;;5108553;28;20198;-33
2022/10/24 02:56:21;;;;;;;3.95;1.48;;;18.80;99.90;;;;;;5108510;28;20194;-32
2022/10/24 02:58:48;;;;;;;4.28;1.20;;;18.80;99.90;;;;;;5107127;28;20246;-32
2022/10/24 03:01:18;;;;;;;3.35;1.88;;;18.80;99.90;;;;;;5108732;28;20203;-33
2022/10/24 03:03:45;;;;;;;3.28;1.00;;;18.80;99.90;;;;;;5108592;28;20317;-33
2022/10/24 03:06:13;;;;;;;4.00;1.42;;;18.80;99.90;;;;;;5108558;28;20211;-33
2022/10/24 03:08:40;;;;;;;6.07;1.30;;;18.80;99.90;;;;;;5108425;28;20757;-33
2022/10/24 03:11:07;;;;;;;4.80;1.60;;;18.80;99.90;;;;;;5108316;28;20205;-33
2022/10/24 03:13:37;;;;;;;6.00;2.05;;;18.80;99.90;;;;;;5108465;28;20198;-33
2022/10/24 03:16:04;;;;;;;5.18;1.35;;;18.80;99.90;;;;;;5108323;28;20214;-32
2022/10/24 03:18:36;;;;;;;3.55;1.13;;;18.70;99.90;;;;;;5108163;28;20287;-32
2022/10/24 03:21:05;;;;;;;5.18;1.20;;;18.70;99.90;;;;;;5108126;28;20237;-32
2022/10/24 03:23:32;;;;;;;5.63;1.60;;;18.70;99.90;;;;;;5109723;28;20198;-32
2022/10/24 03:26:00;;;;;;;5.45;1.20;;;18.70;99.90;;;;;;5111923;28;20727;-33
2022/10/24 03:28:27;;;;;;;4.82;1.55;;;18.70;99.90;;;;;;5111951;28;20210;-33
2022/10/24 03:30:55;;;;;;;4.80;1.42;;;18.70;99.90;;;;;;5110581;28;20625;-34
2022/10/24 03:33:22;;;;;;;2.83;1.05;;;18.70;99.90;;;;;;5110471;28;20198;-33
2022/10/24 03:35:53;;;;;;;6.60;1.30;;;18.70;99.90;;;;;;5111911;28;20286;-33
2022/10/24 03:38:22;;;;;;;3.35;1.25;;;18.80;99.90;;;;;;5111957;28;20301;-33
2022/10/24 03:40:52;;;;;;;3.20;1.30;;;18.80;99.90;;;;;;5111616;28;20194;-34
2022/10/24 03:43:19;;;;;;;5.18;1.50;;;18.80;99.90;;;;;;5111908;28;20563;-33
2022/10/24 03:45:49;;;;;;;4.57;1.13;;;18.80;99.90;;;;;;5111450;28;20229;-34
2022/10/24 03:48:16;;;;;;;4.25;1.30;;;18.80;99.90;;;;;;5111641;27;20225;-34
2022/10/24 03:50:46;;;;;;;6.05;1.75;;;18.80;99.90;;;;;;5111656;28;20193;-33
2022/10/24 03:53:13;;;;;;;5.53;1.50;;;18.70;99.90;;;;;;5111599;27;20771;-34
2022/10/24 03:55:40;;;;;;;4.55;1.23;;;18.70;99.90;;;;;;5111659;28;20197;-33
2022/10/24 03:58:09;;;;;;;4.40;1.23;;;18.70;99.90;;;;;;5111701;28;20563;-34
2022/10/24 04:00:39;;;;;;;4.55;1.15;;;18.70;99.90;;;;;;5111367;28;20235;-33
2022/10/24 04:03:08;;;;;;;6.57;1.50;;;18.70;99.90;;;;;;5111364;28;20676;-34
2022/10/24 04:05:36;;;;;;;3.45;0.88;;;18.70;99.90;;;;;;5111237;28;20197;-34
2022/10/24 04:08:08;;;;;;;5.32;1.52;;;18.70;99.90;;;;;;5111298;28;20198;-33
2022/10/24 04:10:35;;;;;;;4.05;1.20;;;18.70;99.90;;;;;;5110140;28;20301;-33
2022/10/24 04:13:03;;;;;;;6.03;1.63;;;18.70;99.90;;;;;;5111189;28;20201;-34
2022/10/24 04:15:30;;;;;;;5.68;1.65;;;18.70;99.90;;;;;;5111126;28;20210;-34
2022/10/24 04:17:59;;;;;;;3.22;1.10;;;18.70;99.90;;;;;;5109679;28;20206;-33
2022/10/24 04:20:31;;;;;;;6.72;1.40;;;18.60;99.90;;;;;;5110853;28;20234;-34
2022/10/24 04:23:00;;;;;;;8.02;1.70;;;18.60;99.90;;;;;;5109810;28;20191;-34
2022/10/24 04:25:30;;;;;;;5.55;1.85;;;18.60;99.90;;;;;;5110927;28;20198;-34
2022/10/24 04:27:58;;;;;;;6.80;1.60;;;18.60;99.90;;;;;;5110755;28;20205;-34
2022/10/24 04:30:25;;;;;;;5.60;1.38;;;18.60;99.90;;;;;;5110725;28;20203;-33
2022/10/24 04:32:52;;;;;;;6.47;1.60;;;18.60;99.90;;;;;;5109506;28;20487;-32
2022/10/24 04:35:19;;;;;;;5.22;1.63;;;18.60;99.90;;;;;;5110578;27;20198;-32
2022/10/24 04:37:49;;;;;;;5.63;1.40;;;18.70;99.90;;;;;;5110705;28;20202;-32
2022/10/24 04:40:16;;;;;;;6.40;1.50;;;18.70;99.90;;;;;;5110544;27;20707;-32
2022/10/24 04:42:43;;;;;;;5.25;1.42;;;18.60;99.90;;;;;;5110699;28;20610;-33
2022/10/24 04:45:11;;;;;;;9.02;1.52;;;18.60;99.90;;;;;;5110607;28;20214;-32
2022/10/24 04:47:38;;;;;;;4.60;1.40;;;18.60;99.90;;;;;;5109922;28;20222;-32
2022/10/24 04:50:06;;;;;;;11.25;1.30;;;18.60;99.90;;;;;;5110111;28;20206;-32
2022/10/24 04:52:35;;;;;;;9.98;1.60;;;18.60;99.90;;;;;;5110076;28;20198;-32
2022/10/24 04:55:03;;;;;;;5.18;1.50;;;18.60;99.90;;;;;;5110032;28;20202;-33
2022/10/24 04:57:30;;;;;;;7.07;1.58;;;18.60;99.90;;;;;;5110515;28;20198;-33
2022/10/24 04:59:57;;;;;;;6.38;1.00;;;18.60;99.90;;;;;;5109917;28;20757;-33
2022/10/24 05:02:25;;;;;;;6.72;1.33;;;18.60;99.90;;;;;;5110371;28;20220;-33
2022/10/24 05:04:52;;;;;;;7.45;1.45;;;18.60;99.90;;;;;;5109853;28;20689;-33
2022/10/24 05:07:20;;;;;;;8.45;1.90;;;18.60;99.90;;;;;;5109862;28;20537;-33
2022/10/24 05:09:47;;;;;;;10.00;1.92;;;18.60;99.90;;;;;;5108626;28;20243;-34
2022/10/24 05:12:15;;;;;;;6.15;1.70;;;18.60;99.90;;;;;;5109827;28;20579;-34
2022/10/24 05:14:45;;;;;;;6.82;1.30;;;18.60;99.90;;;;;;5108735;28;20572;-34
2022/10/24 05:17:13;;;;;;;8.38;1.73;;;18.60;99.90;;;;;;5110198;28;20194;-33
2022/10/24 05:19:41;;;;;;;7.65;1.33;;;18.60;99.90;;;;;;5109430;28;20727;-33
2022/10/24 05:22:08;;;;;;;8.02;1.25;;;18.60;99.90;;;;;;5109717;28;20253;-33
2022/10/24 05:24:37;;;;;;;8.25;1.80;;;18.60;99.90;;;;;;5108454;28;20206;-33
2022/10/24 05:27:04;;;;;;;8.85;2.05;;;18.60;99.90;;;;;;5109779;28;20214;-33
2022/10/24 05:29:33;;;;;;;10.55;2.15;;;18.60;99.90;;;;;;5109554;28;20566;-33
2022/10/24 05:32:03;;;;;;;6.25;1.42;;;18.60;99.90;;;;;;5109633;28;20715;-33
2022/10/24 05:34:30;;;;;;;6.77;1.57;;;18.50;99.90;;;;;;5109562;28;20746;-33
2022/10/24 05:36:58;;;;;;;11.15;1.52;;;18.50;99.90;;;;;;5109714;28;20210;-34
2022/10/24 05:39:25;;;;;;;12.98;2.10;;;18.50;99.90;;;;;;5109668;28;20209;-34
2022/10/24 05:41:55;;;;;;;11.27;1.70;;;18.50;99.90;;;;;;5109469;28;20280;-33
2022/10/24 05:44:22;;;;;;;6.83;1.57;;;18.50;99.90;;;;;;5108134;28;20209;-33
2022/10/24 05:46:49;;;;;;;5.32;1.42;;;18.50;99.90;;;;;;5109268;28;20585;-33
2022/10/24 05:49:16;;;;;;;10.20;1.67;;;18.50;99.90;;;;;;5109238;28;20186;-33
2022/10/24 05:51:44;;;;;;;7.80;1.33;;;18.50;99.90;;;;;;5109714;28;20190;-33
2022/10/24 05:54:11;;;;;;;9.05;1.58;;;18.60;99.90;;;;;;5109358;28;20198;-33
2022/10/24 05:56:43;;;;;;;8.23;1.52;;;18.50;99.90;;;;;;5109066;28;20198;-33
2022/10/24 05:59:10;;;;;;;8.80;1.80;;;18.50;99.90;;;;;;5109125;28;20641;-33
2022/10/24 06:01:40;;;;;;;8.57;1.77;;;18.50;99.90;;;;;;5109192;28;20688;-33
2022/10/24 06:04:08;;;;;;;8.07;1.70;;;18.60;99.90;;;;;;5109075;28;20225;-33
2022/10/24 06:06:42;;;;;;;9.48;1.67;;;18.60;99.90;;;;;;5107740;28;20268;-33
2022/10/24 06:09:10;;;;;;;10.25;2.38;;;18.60;99.90;;;;;;5107405;28;20657;-33
2022/10/24 06:11:37;;;;;;;9.70;1.80;;;18.50;99.90;;;;;;5108860;28;20985;-33
2022/10/24 06:14:05;;;;;;;9.07;1.67;;;18.50;99.90;;;;;;5108879;28;20214;-33
2022/10/24 06:16:33;;;;;;;12.23;1.88;;;18.60;99.90;;;;;;5108771;28;20202;-33
2022/10/24 06:19:00;;;;;;;9.73;1.60;;;18.60;99.90;;;;;;5108381;28;20205;-33
2022/10/24 06:21:29;;;;;;;7.85;1.38;;;18.60;99.90;;;;;;5108373;28;20205;-33
2022/10/24 06:23:57;;;;;;;6.47;1.50;;;18.60;99.90;;;;;;5108179;28;20198;-33
2022/10/24 06:26:24;;;;;;;8.50;1.40;;;18.60;99.90;;;;;;5106839;28;20275;-34
2022/10/24 06:28:52;;;;;;;15.03;2.27;;;18.60;99.90;;;;;;5108558;28;20228;-34
2022/10/24 06:31:20;;;;;;;8.70;1.90;;;18.60;99.90;;;;;;5106958;28;20206;-34
2022/10/24 06:33:47;;;;;;;7.13;1.70;;;18.60;99.90;;;;;;5108284;28;20619;-34
2022/10/24 06:36:17;;;;;;;11.43;2.00;;;18.60;99.90;;;;;;5108051;28;20198;-34
2022/10/24 06:38:44;;;;;;;14.27;2.55;;;18.60;99.90;;;;;;5108544;28;20199;-34
2022/10/24 06:41:13;;;;;;;9.90;1.70;;;18.60;99.90;;;;;;5108507;28;20732;-34
2022/10/24 06:43:43;;;;;;;13.00;2.50;;;18.70;99.90;;;;;;5108134;28;20190;-35
2022/10/24 06:46:13;;;;;;;10.47;1.90;;;18.70;99.90;;;;;;5106926;28;20206;-35
2022/10/24 06:48:40;;;;;;;7.47;1.85;;;18.60;99.90;;;;;;5108156;28;20296;-34
2022/10/24 06:51:08;;;;;;;9.40;2.03;;;18.70;99.90;;;;;;5108382;28;20195;-34
2022/10/24 06:53:35;;;;;;;9.40;1.77;;;18.60;99.90;;;;;;5106976;28;20209;-34
2022/10/24 06:56:04;;;;;;;10.47;1.63;;;18.60;99.90;;;;;;5106832;28;20248;-35
2022/10/24 06:58:36;;;;;;;11.35;1.65;;;18.60;99.90;;;;;;5111475;28;20345;-35
2022/10/24 07:01:11;;;;;;;14.13;2.10;;;18.70;99.90;;;;;;5112275;28;20699;-34
2022/10/24 07:03:38;;;;;;;11.40;2.20;;;18.70;99.90;;;;;;5094238;28;20604;-34
2022/10/24 07:06:16;;;;;;;8.23;2.13;;;18.70;99.90;;;;;;5112546;28;20782;-33
2022/10/24 07:08:44;;;;;;;7.70;1.60;;;18.70;99.90;;;;;;5112101;28;20179;-34
2022/10/24 07:11:11;;;;;;;7.83;1.40;;;18.70;99.90;;;;;;5112247;28;20226;-34
2022/10/24 07:13:39;;;;;;;10.37;1.70;;;18.70;99.90;;;;;;5112274;28;20562;-34
2022/10/24 07:16:06;;;;;;;10.80;2.33;;;18.70;99.90;;;;;;5112057;28;20213;-34
2022/10/24 07:18:33;;;;;;;11.97;1.90;;;18.70;99.90;;;;;;5112336;28;20286;-34
2022/10/24 07:21:03;;;;;;;11.43;2.17;;;18.70;99.90;;;;;;5112174;27;20234;-34
2022/10/24 07:23:30;;;;;;;10.43;1.92;;;18.70;99.90;;;;;;5111997;28;20267;-34
2022/10/24 07:26:08;;;;;;;7.63;1.88;;;18.70;99.90;;;;;;5112143;28;20237;-34
2022/10/24 07:28:38;;;;;;;11.25;1.83;;;18.70;99.90;;;;;;5111919;28;20218;-34
2022/10/24 07:31:05;;;;;;;8.38;1.88;;;18.70;99.90;;;;;;5111877;28;20656;-34
2022/10/24 07:33:33;;;;;;;8.20;1.73;;;18.70;99.90;;;;;;5112027;28;20679;-34
2022/10/24 07:36:00;;;;;;;9.70;2.20;;;18.70;99.90;;;;;;5111710;28;20218;-33
2022/10/24 07:38:27;;;;;;;7.70;2.00;;;18.70;99.90;;;;;;5111703;28;20210;-33
2022/10/24 07:40:54;;;;;;;12.13;2.03;;;18.70;99.90;;;;;;5111791;28;20212;-33
2022/10/24 07:43:24;;;;;;;9.27;1.90;;;18.70;99.90;;;;;;5111880;28;20238;-33
2022/10/24 07:45:51;;;;;;;12.83;2.63;;;18.80;99.90;;;;;;5111186;28;20202;-33
2022/10/24 07:48:19;;;;;;;10.47;2.03;;;18.80;99.90;;;;;;5109680;28;20214;-33
2022/10/24 07:50:46;;;;;;;11.17;2.20;;;18.70;99.90;;;;;;5111714;28;20536;-33
2022/10/24 07:53:16;;;;;;;8.70;1.90;;;18.80;99.90;;;;;;5111598;28;20225;-34
2022/10/24 07:55:43;;;;;;;8.88;2.22;;;18.80;99.90;;;;;;5111403;28;20213;-33
2022/10/24 07:58:12;;;;;;;8.17;1.70;;;18.70;99.90;;;;;;5111357;27;20202;-33
2022/10/24 08:00:39;;;;;;;13.87;1.93;;;18.80;99.90;;;;;;5111367;28;20198;-34
2022/10/24 08:03:11;;;;;;;7.03;1.40;;;18.80;99.90;;;;;;5111629;28;20206;-33
2022/10/24 08:05:39;;;;;;;9.13;1.90;;;18.80;99.90;;;;;;5109558;28;20206;-33
2022/10/24 08:08:07;;;;;;;10.65;1.90;;;18.80;99.90;;;;;;5110861;28;20233;-33
2022/10/24 08:10:54;;;;;;;10.55;1.90;;;18.80;99.90;;;;;;5110801;28;20306;-33
2022/10/24 08:13:24;;;;;;;8.23;1.73;;;18.80;99.90;;;;;;5110903;27;20201;-33
2022/10/24 08:15:55;;;;;;;10.80;2.10;;;18.80;99.90;;;;;;5110694;28;20202;-33
2022/10/24 08:18:25;;;;;;;13.93;2.22;;;18.80;99.90;;;;;;5110732;28;20206;-33
2022/10/24 08:21:01;;;;;;;11.25;2.63;;;18.90;99.90;;;;;;5110631;28;20252;-33
2022/10/24 08:23:28;;;;;;;10.63;2.40;;;19.00;99.90;;;;;;5109437;28;20557;-33
2022/10/24 08:25:57;;;;;;;14.83;1.93;;;19.00;99.90;;;;;;5110758;28;20522;-33
2022/10/24 08:28:25;;;;;;;12.03;2.07;;;19.00;99.90;;;;;;5110755;28;20254;-33
2022/10/24 08:31:05;;;;;;;11.97;2.27;;;19.00;99.90;;;;;;5110593;28;20198;-33
2022/10/24 08:33:33;;;;;;;14.17;2.53;;;19.00;99.90;;;;;;5110349;27;20570;-33
2022/10/24 08:36:12;;;;;;;8.80;2.10;;;19.00;99.90;;;;;;5110361;28;20206;-34
2022/10/24 08:38:39;;;;;;;10.45;2.17;;;19.10;99.90;;;;;;5110561;28;20297;-33
2022/10/24 08:41:14;;;;;;;10.43;1.83;;;19.00;99.90;;;;;;5110453;28;20198;-34
2022/10/24 08:43:42;;;;;;;14.63;2.03;;;19.10;99.90;;;;;;5110566;28;20186;-33
2022/10/24 08:46:17;;;;;;;10.23;2.03;;;19.10;99.90;;;;;;5110398;28;20218;-33
2022/10/24 08:48:52;;;;;;;8.65;2.10;;;19.20;99.90;;;;;;5110067;28;20554;-33
2022/10/24 08:51:44;;;;;;;12.25;2.28;;;19.20;99.90;;;;;;5110505;28;20231;-33
2022/10/24 08:54:21;;;;;;;11.40;2.40;;;19.30;99.90;;;;;;5109928;28;20694;-33
2022/10/24 08:56:50;;;;;;;8.07;2.10;;;19.30;99.90;;;;;;5110287;28;20205;-33
2022/10/24 08:59:20;;;;;;;9.10;1.83;;;19.30;99.90;;;;;;5109929;28;20347;-34
2022/10/24 09:01:56;;;;;;;9.50;2.30;;;19.20;99.90;;;;;;5110255;28;20664;-33
2022/10/24 09:04:37;;;;;;;10.27;1.90;;;19.30;99.90;;;;;;5108666;28;20579;-33
2022/10/24 09:07:06;;;;;;;10.75;2.10;;;19.30;99.90;;;;;;5109883;28;20206;-34
2022/10/24 09:09:38;;;;;;;10.43;2.20;;;19.20;99.90;;;;;;5108914;28;20672;-34
2022/10/24 09:12:12;;;;;;;8.30;2.30;;;19.20;99.90;;;;;;5110211;28;20573;-33
2022/10/24 09:14:42;;;;;;;9.63;1.70;;;19.30;99.90;;;;;;5109583;28;20675;-34
2022/10/24 09:17:22;;;;;;;12.00;2.47;;;19.30;99.90;;;;;;5109796;28;20239;-34
2022/10/24 09:19:59;;;;;;;8.60;2.28;;;19.30;99.90;;;;;;5109646;28;20681;-36
2022/10/24 09:22:30;;;;;;;9.10;2.20;;;19.40;99.90;;;;;;5107640;28;20210;-34
2022/10/24 09:25:06;;;;;;;14.43;2.45;;;19.40;99.90;;;;;;5109430;28;20213;-34
2022/10/24 09:27:36;;;;;;;12.45;2.30;;;19.40;99.90;;;;;;5107943;28;20222;-34
2022/10/24 09:30:06;;;;;;;13.27;3.08;;;19.40;99.90;;;;;;5109865;28;20540;-34
2022/10/24 09:32:35;;;;;;;14.07;2.38;;;19.40;99.90;;;;;;5109430;28;20658;-34
2022/10/24 09:35:07;;;;;;;16.23;2.90;;;19.40;99.90;;;;;;5109249;28;20186;-34
2022/10/24 09:37:40;;;;;;;11.02;2.20;;;19.40;99.90;;;;;;5109735;28;20599;-35
2022/10/24 09:40:12;;;;;;;7.75;2.20;;;19.50;99.90;;;;;;5109295;28;20209;-34
2022/10/24 09:43:06;;;;;;;10.10;2.85;;;19.50;99.90;;;;;;5109485;28;20198;-34
2022/10/24 09:45:38;;;;;;;9.30;2.00;;;19.50;99.90;;;;;;5095401;28;20221;-33
2022/10/24 09:48:16;;;;;;;12.43;2.33;;;19.50;99.90;;;;;;5108951;28;20206;-33
2022/10/24 09:50:46;;;;;;;12.18;2.45;;;19.50;99.90;;;;;;5109036;28;20313;-33
2022/10/24 09:53:27;;;;;;;9.65;2.00;;;19.50;99.90;;;;;;5107338;28;20263;-34
2022/10/24 09:55:58;;;;;;;10.90;2.17;;;19.60;99.90;;;;;;5108979;28;20580;-33
2022/10/24 09:58:32;;;;;;;10.40;2.22;;;19.60;99.90;;;;;;5108730;28;20182;-33
2022/10/24 10:01:02;;;;;;;10.77;1.98;;;19.70;99.90;;;;;;5108161;28;20205;-33
2022/10/24 10:03:34;;;;;;;10.25;1.80;;;19.70;99.90;;;;;;5108722;28;20186;-33
2022/10/24 10:06:18;;;;;;;12.70;2.38;;;19.70;99.90;;;;;;5108808;28;20672;-33
2022/10/24 10:08:52;;;;;;;8.38;2.25;;;19.70;99.90;;;;;;5108826;28;20216;-33
2022/10/24 10:11:29;;;;;;;12.23;2.15;;;19.80;99.90;;;;;;5108705;28;20202;-33
2022/10/24 10:14:00;;;;;;;11.02;1.92;;;19.90;99.90;;;;;;5108704;28;20186;-33
2022/10/24 10:16:30;;;;;;;10.38;2.17;;;19.90;99.90;;;;;;5108760;28;20202;-33
2022/10/24 10:19:13;;;;;;;10.90;1.90;;;19.90;99.90;;;;;;5108701;28;20190;-34
2022/10/24 10:21:59;;;;;;;12.90;1.92;;;19.90;99.90;;;;;;5108337;28;20214;-33
2022/10/24 10:24:39;;;;;;;14.85;2.00;;;19.90;99.90;;;;;;5108800;28;20198;-33
2022/10/24 10:27:36;;;;;;;10.60;2.65;;;20.00;99.90;;;;;;5108581;28;20233;-33
2022/10/24 10:30:15;;;;;;;10.65;2.00;;;20.00;99.90;;;;;;5108532;28;20238;-33
2022/10/24 10:33:17;;;;;;;8.95;1.90;;;20.10;99.90;;;;;;5108444;28;20271;-33
2022/10/24 10:35:56;;;;;;;10.27;1.70;;;20.00;99.90;;;;;;5108389;28;20190;-33
2022/10/24 10:38:45;;;;;;;10.63;2.20;;;20.10;99.90;;;;;;5108742;28;20223;-34
2022/10/24 10:41:27;;;;;;;12.75;2.35;;;20.10;99.90;;;;;;5108186;28;20313;-33
2022/10/24 10:44:15;;;;;;;9.57;1.77;;;20.10;99.90;;;;;;5108870;28;20243;-34
2022/10/24 10:47:00;;;;;;;9.88;2.15;;;20.10;99.90;;;;;;5106994;28;20187;-34
2022/10/24 10:49:38;;;;;;;8.35;1.98;;;20.10;99.90;;;;;;5108209;28;20769;-33
2022/10/24 10:52:13;;;;;;;11.43;2.03;;;20.10;99.90;;;;;;5108282;28;20285;-33
2022/10/24 10:55:07;;;;;;;11.82;1.83;;;20.10;99.90;;;;;;5107177;28;20886;-34
2022/10/24 10:57:56;;;;;;;8.63;1.90;;;20.20;99.90;;;;;;5108075;28;20207;-33
2022/10/24 11:00:45;;;;;;;14.32;1.90;;;20.20;99.90;;;;;;5106819;28;20198;-34
2022/10/24 11:03:22;;;;;;;10.52;1.92;;;20.10;99.90;;;;;;5108198;28;20612;-34
2022/10/24 11:06:08;;;;;;;8.18;1.80;;;20.10;99.90;;;;;;5108293;28;20765;-34
2022/10/24 11:09:14;;;;;;;8.20;2.10;;;20.10;99.90;;;;;;5108280;28;20593;-34
2022/10/24 11:12:06;;;;;;;10.55;1.77;;;20.10;99.90;;;;;;5108154;28;20193;-33
2022/10/24 11:14:42;;;;;;;9.40;2.55;;;20.10;99.90;;;;;;5108134;28;20205;-33
2022/10/24 11:17:19;;;;;;;11.48;1.90;;;20.10;99.90;;;;;;5107969;28;20275;-34
2022/10/24 11:19:49;;;;;;;10.63;2.25;;;20.10;99.90;;;;;;5107659;28;20232;-35
2022/10/24 11:22:23;;;;;;;11.20;2.25;;;20.10;99.90;;;;;;5107832;28;20194;-35
2022/10/24 11:25:28;;;;;;;14.02;2.92;;;20.10;99.90;;;;;;5107678;28;20197;-35
2022/10/24 11:28:21;;;;;;;12.73;2.85;;;20.10;99.90;;;;;;5107434;28;20321;-34
2022/10/24 11:30:52;;;;;;;20.80;3.42;;;20.10;99.90;;;;;;5107736;28;20240;-35
2022/10/24 11:33:52;;;;;;;14.25;2.30;;;20.10;99.90;;;;;;5108313;28;20584;-35
2022/10/24 11:36:27;;;;;;;8.63;1.85;;;20.10;99.90;;;;;;5079430;28;20206;-33
2022/10/24 11:39:02;;;;;;;8.43;1.70;;;20.10;99.90;;;;;;5107987;28;20209;-34
2022/10/24 11:42:00;;;;;;;6.40;1.40;;;20.10;99.90;;;;;;5107999;28;20648;-35
2022/10/24 11:44:52;;;;;;;6.10;1.60;;;20.10;99.90;;;;;;5108807;28;20684;-35
2022/10/24 11:47:25;;;;;;;6.00;1.40;;;20.20;99.90;;;;;;5111034;28;20182;-35
2022/10/24 11:50:23;;;;;;;6.38;1.45;;;20.20;99.90;;;;;;5109208;28;20728;-34
2022/10/24 11:52:55;;;;;;;3.50;1.08;;;20.30;99.90;;;;;;5111195;28;20676;-36
2022/10/24 11:55:37;;;;;;;8.30;1.88;;;20.30;99.90;;;;;;5111254;28;20275;-34
2022/10/24 11:58:16;;;;;;;6.20;1.25;;;20.30;99.90;;;;;;5109814;28;20515;-34
2022/10/24 12:01:12;;;;;;;11.55;1.60;;;20.20;99.90;;;;;;5109992;28;20210;-34
2022/10/24 12:03:45;;;;;;;6.40;1.45;;;20.20;99.90;;;;;;5111126;28;20660;-34
2022/10/24 12:06:42;;;;;;;9.07;1.35;;;20.20;99.90;;;;;;5111096;28;20965;-36
2022/10/24 12:09:34;;;;;;;5.93;1.10;;;20.20;99.90;;;;;;5110968;28;21137;-35
2022/10/24 12:12:23;;;;;;;4.55;1.23;;;20.20;99.90;;;;;;5111040;28;20202;-34
2022/10/24 12:15:09;;;;;;;5.18;1.30;;;20.20;99.90;;;;;;5111078;28;20193;-36
2022/10/24 12:18:22;;;;;;;8.95;1.80;;;20.20;99.90;;;;;;5110786;28;20214;-35
2022/10/24 12:20:52;;;;;;;6.60;1.50;;;20.10;99.90;;;;;;5110756;28;20233;-35
2022/10/24 12:23:26;;;;;;;5.68;1.48;;;20.00;99.90;;;;;;5111121;28;20243;-35
2022/10/24 12:26:14;;;;;;;6.18;1.42;;;19.90;99.90;;;;;;5110916;28;20208;-35
2022/10/24 12:28:42;;;;;;;9.43;1.63;;;19.80;99.90;;;;;;5110942;28;20214;-35
2022/10/24 12:31:17;;;;;;;4.50;0.98;;;19.70;99.90;;;;;;5110785;28;20590;-35
2022/10/24 12:34:30;;;;;;;4.93;1.40;;;19.60;99.90;;;;;;5109575;28;20568;-35
2022/10/24 12:37:11;;;;;;;6.38;1.70;;;19.60;99.90;;;;;;5027630;28;20181;-35
2022/10/24 12:39:41;;;;;;;5.45;1.23;;;19.40;99.90;;;;;;5010813;28;20909;-35
2022/10/24 12:42:22;;;;;;;3.72;1.25;;;19.40;99.90;;;;;;5080734;28;20559;-35
2022/10/24 12:44:59;;;;;;;7.80;1.95;;;19.40;99.90;;;;;;5109224;28;20229;-35
2022/10/24 12:47:39;;;;;;;8.13;1.88;;;19.40;99.90;;;;;;5110445;28;20364;-35
2022/10/24 12:50:21;;;;;;;7.07;1.25;;;19.30;99.90;;;;;;5110559;28;20209;-35
2022/10/24 12:53:02;;;;;;;6.28;1.50;;;19.30;99.90;;;;;;5110378;28;20578;-35
2022/10/24 12:55:35;;;;;;;7.72;1.70;;;19.30;99.90;;;;;;5110148;28;20194;-35
2022/10/24 12:58:30;;;;;;;6.05;1.58;;;19.20;99.90;;;;;;5110114;28;20249;-35
2022/10/24 13:00:59;;;;;;;179.50;66.35;;;19.20;99.90;;;;;;5110365;28;20267;-35
2022/10/24 13:03:35;;;;;;;13.57;2.90;;;19.20;99.90;;;;;;5110040;28;20289;-35
2022/10/24 13:06:22;;;;;;;6.25;1.80;;;19.10;99.90;;;;;;5110054;28;20457;-35
2022/10/24 13:09:15;;;;;;;6.43;1.45;;;19.10;99.90;;;;;;5109890;28;20719;-35
2022/10/24 13:12:03;;;;;;;7.85;1.52;;;19.00;99.90;;;;;;5109623;28;20187;-35
2022/10/24 13:14:37;;;;;;;3.47;1.70;;;19.00;99.90;;;;;;5109189;28;20197;-35
2022/10/24 13:17:12;;;;;;;7.47;1.40;;;19.00;99.90;;;;;;5109034;28;20714;-35